KPNS/PNS METAR and TAF weather

Enter ICAO airport designator
Station Type Date Time Source
KPNS METAR 2019/04/23 03:53 UTC NOAA

KPNS 230353Z AUTO 00000KT 10SM CLR 17/10 A3015 RMK AO2 SLP212 T01670100


Station Type Date Time Source
KPNS Decoded METAR 2019/04/23 03:53 UTC NOAA

PENSACOLA REGIONAL AIRPORT, FL, United States (KPNS) 30-29N 087-11W 38M
Apr 22, 2019 - 11:53 PM EDT / 2019.04.23 0353 UTC
Wind: Calm:0
Visibility: 10 mile(s):0
Sky conditions: clear
Temperature: 62.1 F (16.7 C)
Dew Point: 50.0 F (10.0 C)
Relative Humidity: 64%
Pressure (altimeter): 30.15 in. Hg (1020 hPa)
ob: KPNS 230353Z AUTO 00000KT 10SM CLR 17/10 A3015 RMK AO2 SLP212 T01670100
cycle: 4

Station Type Date Time Source
KPNS TAF 2019/04/22 18:24 UTC NOAA

TAF KPNS 221722Z 2218/2318 17009KT P6SM SKC
FM230100 VRB03KT P6SM SKC

Example: see airport list